sensor_id;sensor_type;location;lat;lon;timestamp;P1;durP1;ratioP1;P2;durP2;ratioP2
10523;SDS011;5310;48.638;9.060;2022-08-24T00:00:34;0.50;;;0.50;;
10523;SDS011;5310;48.638;9.060;2022-08-24T00:03:00;0.50;;;0.50;;
10523;SDS011;5310;48.638;9.060;2022-08-24T00:05:26;0.50;;;0.50;;
10523;SDS011;5310;48.638;9.060;2022-08-24T00:07:52;0.50;;;0.50;;
10523;SDS011;5310;48.638;9.060;2022-08-24T00:10:19;0.60;;;0.60;;
10523;SDS011;5310;48.638;9.060;2022-08-24T00:12:45;0.50;;;0.50;;
10523;SDS011;5310;48.638;9.060;2022-08-24T00:15:12;0.60;;;0.60;;
10523;SDS011;5310;48.638;9.060;2022-08-24T00:17:39;0.50;;;0.50;;
10523;SDS011;5310;48.638;9.060;2022-08-24T00:20:06;0.50;;;0.50;;
10523;SDS011;5310;48.638;9.060;2022-08-24T00:22:33;0.50;;;0.50;;
10523;SDS011;5310;48.638;9.060;2022-08-24T00:24:58;0.60;;;0.60;;
10523;SDS011;5310;48.638;9.060;2022-08-24T00:27:24;0.40;;;0.40;;
10523;SDS011;5310;48.638;9.060;2022-08-24T00:29:50;0.60;;;0.60;;
10523;SDS011;5310;48.638;9.060;2022-08-24T00:32:16;0.50;;;0.50;;
10523;SDS011;5310;48.638;9.060;2022-08-24T00:34:42;0.60;;;0.60;;
10523;SDS011;5310;48.638;9.060;2022-08-24T00:37:08;0.50;;;0.50;;
10523;SDS011;5310;48.638;9.060;2022-08-24T00:39:34;0.43;;;0.43;;
10523;SDS011;5310;48.638;9.060;2022-08-24T00:42:00;0.53;;;0.53;;
10523;SDS011;5310;48.638;9.060;2022-08-24T00:44:26;0.50;;;0.50;;
10523;SDS011;5310;48.638;9.060;2022-08-24T00:52:14;0.50;;;0.50;;
10523;SDS011;5310;48.638;9.060;2022-08-24T00:54:51;0.60;;;0.60;;
10523;SDS011;5310;48.638;9.060;2022-08-24T00:57:22;0.50;;;0.50;;
10523;SDS011;5310;48.638;9.060;2022-08-24T00:59:53;0.60;;;0.60;;
10523;SDS011;5310;48.638;9.060;2022-08-24T01:02:22;0.40;;;0.40;;
10523;SDS011;5310;48.638;9.060;2022-08-24T01:04:53;0.50;;;0.50;;
10523;SDS011;5310;48.638;9.060;2022-08-24T01:07:21;0.30;;;0.30;;
10523;SDS011;5310;48.638;9.060;2022-08-24T01:09:49;0.40;;;0.40;;
10523;SDS011;5310;48.638;9.060;2022-08-24T01:12:16;0.40;;;0.40;;
10523;SDS011;5310;48.638;9.060;2022-08-24T01:14:42;0.40;;;0.40;;
10523;SDS011;5310;48.638;9.060;2022-08-24T01:17:08;0.40;;;0.40;;
10523;SDS011;5310;48.638;9.060;2022-08-24T01:19:53;0.50;;;0.50;;
10523;SDS011;5310;48.638;9.060;2022-08-24T01:25:17;0.60;;;0.60;;
10523;SDS011;5310;48.638;9.060;2022-08-24T01:27:43;0.60;;;0.60;;
10523;SDS011;5310;48.638;9.060;2022-08-24T01:30:10;0.50;;;0.50;;
10523;SDS011;5310;48.638;9.060;2022-08-24T01:32:38;0.50;;;0.50;;
10523;SDS011;5310;48.638;9.060;2022-08-24T01:35:05;0.50;;;0.50;;
10523;SDS011;5310;48.638;9.060;2022-08-24T01:37:32;0.60;;;0.60;;
10523;SDS011;5310;48.638;9.060;2022-08-24T01:39:59;0.60;;;0.60;;
10523;SDS011;5310;48.638;9.060;2022-08-24T01:42:30;0.60;;;0.60;;
10523;SDS011;5310;48.638;9.060;2022-08-24T01:44:58;0.50;;;0.50;;
10523;SDS011;5310;48.638;9.060;2022-08-24T01:47:24;0.60;;;0.60;;
10523;SDS011;5310;48.638;9.060;2022-08-24T01:49:50;0.60;;;0.60;;
10523;SDS011;5310;48.638;9.060;2022-08-24T01:52:18;0.50;;;0.50;;
10523;SDS011;5310;48.638;9.060;2022-08-24T01:54:45;0.67;;;0.67;;
10523;SDS011;5310;48.638;9.060;2022-08-24T01:57:11;0.30;;;0.30;;
10523;SDS011;5310;48.638;9.060;2022-08-24T01:59:38;0.40;;;0.40;;
10523;SDS011;5310;48.638;9.060;2022-08-24T02:02:08;0.40;;;0.40;;
10523;SDS011;5310;48.638;9.060;2022-08-24T02:04:41;0.40;;;0.40;;
10523;SDS011;5310;48.638;9.060;2022-08-24T02:07:07;0.50;;;0.50;;
10523;SDS011;5310;48.638;9.060;2022-08-24T02:09:33;0.60;;;0.60;;
10523;SDS011;5310;48.638;9.060;2022-08-24T02:12:00;0.70;;;0.70;;
10523;SDS011;5310;48.638;9.060;2022-08-24T02:14:27;0.57;;;0.57;;
10523;SDS011;5310;48.638;9.060;2022-08-24T02:16:53;0.50;;;0.50;;
10523;SDS011;5310;48.638;9.060;2022-08-24T02:19:19;0.50;;;0.50;;
10523;SDS011;5310;48.638;9.060;2022-08-24T02:21:45;0.50;;;0.50;;
10523;SDS011;5310;48.638;9.060;2022-08-24T02:24:11;0.50;;;0.50;;
10523;SDS011;5310;48.638;9.060;2022-08-24T02:26:37;0.60;;;0.60;;
10523;SDS011;5310;48.638;9.060;2022-08-24T02:29:04;0.60;;;0.60;;
10523;SDS011;5310;48.638;9.060;2022-08-24T02:31:30;0.70;;;0.70;;
10523;SDS011;5310;48.638;9.060;2022-08-24T02:33:56;0.50;;;0.50;;
10523;SDS011;5310;48.638;9.060;2022-08-24T02:36:23;0.50;;;0.50;;
10523;SDS011;5310;48.638;9.060;2022-08-24T02:38:49;0.60;;;0.60;;
10523;SDS011;5310;48.638;9.060;2022-08-24T02:41:15;0.60;;;0.60;;
10523;SDS011;5310;48.638;9.060;2022-08-24T02:43:41;0.60;;;0.60;;
10523;SDS011;5310;48.638;9.060;2022-08-24T02:46:07;0.50;;;0.50;;
10523;SDS011;5310;48.638;9.060;2022-08-24T02:48:33;0.60;;;0.60;;
10523;SDS011;5310;48.638;9.060;2022-08-24T02:50:59;0.60;;;0.60;;
10523;SDS011;5310;48.638;9.060;2022-08-24T02:53:25;0.70;;;0.70;;
10523;SDS011;5310;48.638;9.060;2022-08-24T02:55:51;0.60;;;0.60;;
10523;SDS011;5310;48.638;9.060;2022-08-24T02:58:16;0.70;;;0.70;;
10523;SDS011;5310;48.638;9.060;2022-08-24T03:00:43;0.60;;;0.60;;
10523;SDS011;5310;48.638;9.060;2022-08-24T03:03:10;0.60;;;0.60;;
10523;SDS011;5310;48.638;9.060;2022-08-24T03:05:36;0.60;;;0.60;;
10523;SDS011;5310;48.638;9.060;2022-08-24T03:08:03;0.70;;;0.70;;
10523;SDS011;5310;48.638;9.060;2022-08-24T03:10:29;0.60;;;0.60;;
10523;SDS011;5310;48.638;9.060;2022-08-24T03:12:55;0.70;;;0.70;;
10523;SDS011;5310;48.638;9.060;2022-08-24T03:15:21;0.50;;;0.50;;
10523;SDS011;5310;48.638;9.060;2022-08-24T03:17:47;0.63;;;0.63;;
10523;SDS011;5310;48.638;9.060;2022-08-24T03:20:14;0.50;;;0.50;;
10523;SDS011;5310;48.638;9.060;2022-08-24T03:22:42;0.70;;;0.70;;
10523;SDS011;5310;48.638;9.060;2022-08-24T03:25:08;0.60;;;0.60;;
10523;SDS011;5310;48.638;9.060;2022-08-24T03:27:35;0.70;;;0.70;;
10523;SDS011;5310;48.638;9.060;2022-08-24T03:30:00;0.70;;;0.70;;
10523;SDS011;5310;48.638;9.060;2022-08-24T03:32:27;0.60;;;0.60;;
10523;SDS011;5310;48.638;9.060;2022-08-24T03:34:53;0.50;;;0.50;;
10523;SDS011;5310;48.638;9.060;2022-08-24T03:37:19;0.70;;;0.70;;
10523;SDS011;5310;48.638;9.060;2022-08-24T03:39:45;0.70;;;0.70;;
10523;SDS011;5310;48.638;9.060;2022-08-24T03:42:12;0.60;;;0.60;;
10523;SDS011;5310;48.638;9.060;2022-08-24T03:44:38;0.60;;;0.60;;
10523;SDS011;5310;48.638;9.060;2022-08-24T03:47:05;0.60;;;0.60;;
10523;SDS011;5310;48.638;9.060;2022-08-24T03:49:32;0.67;;;0.67;;
10523;SDS011;5310;48.638;9.060;2022-08-24T03:51:58;0.60;;;0.60;;
10523;SDS011;5310;48.638;9.060;2022-08-24T03:54:24;0.50;;;0.50;;
10523;SDS011;5310;48.638;9.060;2022-08-24T03:56:50;0.60;;;0.60;;
10523;SDS011;5310;48.638;9.060;2022-08-24T03:59:16;0.60;;;0.60;;
10523;SDS011;5310;48.638;9.060;2022-08-24T04:01:42;0.70;;;0.70;;
10523;SDS011;5310;48.638;9.060;2022-08-24T04:04:08;0.60;;;0.60;;
10523;SDS011;5310;48.638;9.060;2022-08-24T04:06:34;0.70;;;0.70;;
10523;SDS011;5310;48.638;9.060;2022-08-24T04:09:00;0.60;;;0.60;;
10523;SDS011;5310;48.638;9.060;2022-08-24T04:11:27;0.70;;;0.70;;
10523;SDS011;5310;48.638;9.060;2022-08-24T04:13:54;0.60;;;0.60;;
10523;SDS011;5310;48.638;9.060;2022-08-24T04:16:21;0.60;;;0.60;;
10523;SDS011;5310;48.638;9.060;2022-08-24T04:18:47;0.70;;;0.70;;
10523;SDS011;5310;48.638;9.060;2022-08-24T04:21:14;0.70;;;0.70;;
10523;SDS011;5310;48.638;9.060;2022-08-24T04:23:40;0.77;;;0.77;;
10523;SDS011;5310;48.638;9.060;2022-08-24T04:26:06;0.60;;;0.60;;
10523;SDS011;5310;48.638;9.060;2022-08-24T04:28:32;0.60;;;0.60;;
10523;SDS011;5310;48.638;9.060;2022-08-24T04:30:58;0.60;;;0.60;;
10523;SDS011;5310;48.638;9.060;2022-08-24T04:33:24;0.80;;;0.80;;
10523;SDS011;5310;48.638;9.060;2022-08-24T04:35:50;0.50;;;0.50;;
10523;SDS011;5310;48.638;9.060;2022-08-24T04:38:17;0.60;;;0.60;;
10523;SDS011;5310;48.638;9.060;2022-08-24T04:40:44;0.70;;;0.70;;
10523;SDS011;5310;48.638;9.060;2022-08-24T04:43:11;0.60;;;0.60;;
10523;SDS011;5310;48.638;9.060;2022-08-24T04:45:42;0.70;;;0.70;;
10523;SDS011;5310;48.638;9.060;2022-08-24T04:48:10;0.60;;;0.60;;
10523;SDS011;5310;48.638;9.060;2022-08-24T04:50:37;0.70;;;0.70;;
10523;SDS011;5310;48.638;9.060;2022-08-24T04:53:05;0.70;;;0.70;;
10523;SDS011;5310;48.638;9.060;2022-08-24T04:55:32;0.53;;;0.53;;
10523;SDS011;5310;48.638;9.060;2022-08-24T04:57:58;0.70;;;0.70;;
10523;SDS011;5310;48.638;9.060;2022-08-24T05:00:24;0.60;;;0.60;;
10523;SDS011;5310;48.638;9.060;2022-08-24T05:02:50;0.50;;;0.50;;
10523;SDS011;5310;48.638;9.060;2022-08-24T05:05:16;0.60;;;0.60;;
10523;SDS011;5310;48.638;9.060;2022-08-24T05:07:42;0.70;;;0.70;;
10523;SDS011;5310;48.638;9.060;2022-08-24T05:10:12;0.57;;;0.57;;
10523;SDS011;5310;48.638;9.060;2022-08-24T05:12:38;0.60;;;0.60;;
10523;SDS011;5310;48.638;9.060;2022-08-24T05:15:04;0.70;;;0.70;;
10523;SDS011;5310;48.638;9.060;2022-08-24T05:17:30;0.50;;;0.50;;
10523;SDS011;5310;48.638;9.060;2022-08-24T05:19:56;0.57;;;0.57;;
10523;SDS011;5310;48.638;9.060;2022-08-24T05:22:22;0.60;;;0.60;;
10523;SDS011;5310;48.638;9.060;2022-08-24T05:24:48;0.60;;;0.60;;
10523;SDS011;5310;48.638;9.060;2022-08-24T05:27:14;0.60;;;0.60;;
10523;SDS011;5310;48.638;9.060;2022-08-24T05:29:41;0.60;;;0.60;;
10523;SDS011;5310;48.638;9.060;2022-08-24T05:32:07;0.50;;;0.50;;
10523;SDS011;5310;48.638;9.060;2022-08-24T05:34:32;0.60;;;0.60;;
10523;SDS011;5310;48.638;9.060;2022-08-24T05:36:58;0.50;;;0.50;;
10523;SDS011;5310;48.638;9.060;2022-08-24T05:39:24;0.50;;;0.50;;
10523;SDS011;5310;48.638;9.060;2022-08-24T05:41:50;0.50;;;0.50;;
10523;SDS011;5310;48.638;9.060;2022-08-24T05:44:16;0.60;;;0.60;;
10523;SDS011;5310;48.638;9.060;2022-08-24T05:46:42;0.40;;;0.40;;
10523;SDS011;5310;48.638;9.060;2022-08-24T05:49:09;0.50;;;0.50;;
10523;SDS011;5310;48.638;9.060;2022-08-24T05:51:35;0.50;;;0.50;;
10523;SDS011;5310;48.638;9.060;2022-08-24T05:54:01;0.60;;;0.60;;
10523;SDS011;5310;48.638;9.060;2022-08-24T05:56:29;0.50;;;0.50;;
10523;SDS011;5310;48.638;9.060;2022-08-24T05:58:55;0.50;;;0.50;;
10523;SDS011;5310;48.638;9.060;2022-08-24T06:01:22;0.50;;;0.50;;
10523;SDS011;5310;48.638;9.060;2022-08-24T06:03:49;0.38;;;0.38;;
10523;SDS011;5310;48.638;9.060;2022-08-24T06:06:15;0.50;;;0.50;;
10523;SDS011;5310;48.638;9.060;2022-08-24T06:08:43;0.50;;;0.50;;
10523;SDS011;5310;48.638;9.060;2022-08-24T06:11:18;0.40;;;0.40;;
10523;SDS011;5310;48.638;9.060;2022-08-24T06:13:54;0.40;;;0.40;;
10523;SDS011;5310;48.638;9.060;2022-08-24T06:16:22;0.40;;;0.40;;
10523;SDS011;5310;48.638;9.060;2022-08-24T06:18:49;0.40;;;0.40;;
10523;SDS011;5310;48.638;9.060;2022-08-24T06:21:16;0.40;;;0.40;;
10523;SDS011;5310;48.638;9.060;2022-08-24T06:23:46;0.50;;;0.50;;
10523;SDS011;5310;48.638;9.060;2022-08-24T06:26:12;0.47;;;0.47;;
10523;SDS011;5310;48.638;9.060;2022-08-24T06:28:57;0.40;;;0.40;;
10523;SDS011;5310;48.638;9.060;2022-08-24T06:31:24;0.50;;;0.50;;
10523;SDS011;5310;48.638;9.060;2022-08-24T06:33:50;0.50;;;0.50;;
10523;SDS011;5310;48.638;9.060;2022-08-24T06:36:15;0.40;;;0.40;;
10523;SDS011;5310;48.638;9.060;2022-08-24T06:38:41;0.40;;;0.40;;
10523;SDS011;5310;48.638;9.060;2022-08-24T06:41:07;0.40;;;0.40;;
10523;SDS011;5310;48.638;9.060;2022-08-24T06:43:34;0.30;;;0.30;;
10523;SDS011;5310;48.638;9.060;2022-08-24T06:46:00;0.30;;;0.30;;
10523;SDS011;5310;48.638;9.060;2022-08-24T06:48:26;0.30;;;0.30;;
10523;SDS011;5310;48.638;9.060;2022-08-24T06:50:52;0.40;;;0.40;;
10523;SDS011;5310;48.638;9.060;2022-08-24T06:53:19;0.40;;;0.40;;
10523;SDS011;5310;48.638;9.060;2022-08-24T06:55:49;0.40;;;0.40;;
10523;SDS011;5310;48.638;9.060;2022-08-24T06:58:23;0.40;;;0.40;;
10523;SDS011;5310;48.638;9.060;2022-08-24T07:00:51;0.40;;;0.40;;
10523;SDS011;5310;48.638;9.060;2022-08-24T07:03:19;0.40;;;0.40;;
10523;SDS011;5310;48.638;9.060;2022-08-24T07:05:48;0.40;;;0.40;;
10523;SDS011;5310;48.638;9.060;2022-08-24T07:08:14;0.40;;;0.40;;
10523;SDS011;5310;48.638;9.060;2022-08-24T07:10:40;0.30;;;0.30;;
10523;SDS011;5310;48.638;9.060;2022-08-24T07:13:06;0.30;;;0.30;;
10523;SDS011;5310;48.638;9.060;2022-08-24T07:15:34;0.30;;;0.30;;
10523;SDS011;5310;48.638;9.060;2022-08-24T07:18:00;0.30;;;0.30;;
10523;SDS011;5310;48.638;9.060;2022-08-24T07:20:28;0.30;;;0.30;;
10523;SDS011;5310;48.638;9.060;2022-08-24T07:22:54;0.30;;;0.30;;
10523;SDS011;5310;48.638;9.060;2022-08-24T07:25:20;0.30;;;0.30;;
10523;SDS011;5310;48.638;9.060;2022-08-24T07:27:46;0.30;;;0.30;;
10523;SDS011;5310;48.638;9.060;2022-08-24T07:30:12;0.30;;;0.30;;
10523;SDS011;5310;48.638;9.060;2022-08-24T07:32:39;0.30;;;0.30;;
10523;SDS011;5310;48.638;9.060;2022-08-24T07:35:05;0.30;;;0.30;;
10523;SDS011;5310;48.638;9.060;2022-08-24T07:37:31;0.30;;;0.30;;
10523;SDS011;5310;48.638;9.060;2022-08-24T07:39:57;0.30;;;0.30;;
10523;SDS011;5310;48.638;9.060;2022-08-24T07:42:23;0.30;;;0.30;;
10523;SDS011;5310;48.638;9.060;2022-08-24T07:44:49;0.30;;;0.30;;
10523;SDS011;5310;48.638;9.060;2022-08-24T07:47:15;0.30;;;0.30;;
10523;SDS011;5310;48.638;9.060;2022-08-24T07:49:41;0.30;;;0.30;;
10523;SDS011;5310;48.638;9.060;2022-08-24T07:52:07;0.30;;;0.30;;
10523;SDS011;5310;48.638;9.060;2022-08-24T07:54:34;0.30;;;0.30;;
10523;SDS011;5310;48.638;9.060;2022-08-24T07:57:00;0.30;;;0.30;;
10523;SDS011;5310;48.638;9.060;2022-08-24T07:59:28;0.30;;;0.30;;
10523;SDS011;5310;48.638;9.060;2022-08-24T08:01:54;0.30;;;0.30;;
10523;SDS011;5310;48.638;9.060;2022-08-24T08:04:20;0.30;;;0.30;;
10523;SDS011;5310;48.638;9.060;2022-08-24T08:06:48;0.20;;;0.20;;
10523;SDS011;5310;48.638;9.060;2022-08-24T08:09:13;0.30;;;0.30;;
10523;SDS011;5310;48.638;9.060;2022-08-24T08:11:39;0.30;;;0.30;;
10523;SDS011;5310;48.638;9.060;2022-08-24T08:14:05;0.20;;;0.20;;
10523;SDS011;5310;48.638;9.060;2022-08-24T08:16:31;0.30;;;0.30;;
10523;SDS011;5310;48.638;9.060;2022-08-24T08:18:57;0.30;;;0.30;;
10523;SDS011;5310;48.638;9.060;2022-08-24T08:21:23;0.20;;;0.20;;
10523;SDS011;5310;48.638;9.060;2022-08-24T08:24:08;0.20;;;0.20;;
10523;SDS011;5310;48.638;9.060;2022-08-24T08:26:40;0.20;;;0.20;;
10523;SDS011;5310;48.638;9.060;2022-08-24T08:29:07;0.30;;;0.30;;
10523;SDS011;5310;48.638;9.060;2022-08-24T08:31:34;0.30;;;0.30;;
10523;SDS011;5310;48.638;9.060;2022-08-24T08:34:00;0.20;;;0.20;;
10523;SDS011;5310;48.638;9.060;2022-08-24T08:36:26;0.30;;;0.30;;
10523;SDS011;5310;48.638;9.060;2022-08-24T08:38:52;0.20;;;0.20;;
10523;SDS011;5310;48.638;9.060;2022-08-24T08:54:50;0.30;;;0.30;;
10523;SDS011;5310;48.638;9.060;2022-08-24T08:57:23;0.30;;;0.30;;
10523;SDS011;5310;48.638;9.060;2022-08-24T09:05:26;0.22;;;0.22;;
10523;SDS011;5310;48.638;9.060;2022-08-24T09:16:17;0.25;;;0.25;;
10523;SDS011;5310;48.638;9.060;2022-08-24T09:18:51;0.20;;;0.20;;
10523;SDS011;5310;48.638;9.060;2022-08-24T09:24:24;0.30;;;0.30;;
10523;SDS011;5310;48.638;9.060;2022-08-24T09:27:04;0.20;;;0.20;;
10523;SDS011;5310;48.638;9.060;2022-08-24T09:35:12;0.30;;;0.30;;
10523;SDS011;5310;48.638;9.060;2022-08-24T09:43:18;0.20;;;0.20;;
10523;SDS011;5310;48.638;9.060;2022-08-24T09:45:59;0.30;;;0.30;;
10523;SDS011;5310;48.638;9.060;2022-08-24T09:57:01;0.13;;;0.13;;
10523;SDS011;5310;48.638;9.060;2022-08-24T10:02:30;0.30;;;0.30;;
10523;SDS011;5310;48.638;9.060;2022-08-24T10:10:49;0.20;;;0.20;;
10523;SDS011;5310;48.638;9.060;2022-08-24T10:13:28;0.30;;;0.30;;
10523;SDS011;5310;48.638;9.060;2022-08-24T10:24:10;0.20;;;0.20;;
10523;SDS011;5310;48.638;9.060;2022-08-24T10:37:28;0.20;;;0.20;;
10523;SDS011;5310;48.638;9.060;2022-08-24T10:40:57;0.10;;;0.10;;
10523;SDS011;5310;48.638;9.060;2022-08-24T10:54:06;0.30;;;0.30;;
10523;SDS011;5310;48.638;9.060;2022-08-24T10:56:38;0.13;;;0.13;;
10523;SDS011;5310;48.638;9.060;2022-08-24T10:59:25;0.20;;;0.20;;
10523;SDS011;5310;48.638;9.060;2022-08-24T11:04:28;0.10;;;0.10;;
10523;SDS011;5310;48.638;9.060;2022-08-24T11:09:42;0.20;;;0.20;;
10523;SDS011;5310;48.638;9.060;2022-08-24T11:12:16;0.20;;;0.20;;
10523;SDS011;5310;48.638;9.060;2022-08-24T11:14:46;0.10;;;0.10;;
10523;SDS011;5310;48.638;9.060;2022-08-24T11:17:17;0.20;;;0.20;;
10523;SDS011;5310;48.638;9.060;2022-08-24T11:19:45;0.20;;;0.20;;
10523;SDS011;5310;48.638;9.060;2022-08-24T11:22:28;0.30;;;0.30;;
10523;SDS011;5310;48.638;9.060;2022-08-24T11:25:21;0.20;;;0.20;;
10523;SDS011;5310;48.638;9.060;2022-08-24T11:27:51;0.10;;;0.10;;
10523;SDS011;5310;48.638;9.060;2022-08-24T11:30:37;0.20;;;0.20;;
10523;SDS011;5310;48.638;9.060;2022-08-24T11:33:04;0.20;;;0.20;;
10523;SDS011;5310;48.638;9.060;2022-08-24T11:35:49;0.10;;;0.10;;
10523;SDS011;5310;48.638;9.060;2022-08-24T11:38:23;0.25;;;0.25;;
10523;SDS011;5310;48.638;9.060;2022-08-24T11:44:00;0.20;;;0.20;;
10523;SDS011;5310;48.638;9.060;2022-08-24T11:46:46;0.20;;;0.20;;
10523;SDS011;5310;48.638;9.060;2022-08-24T11:55:12;0.20;;;0.20;;
10523;SDS011;5310;48.638;9.060;2022-08-24T11:57:53;0.20;;;0.20;;
10523;SDS011;5310;48.638;9.060;2022-08-24T12:00:37;0.13;;;0.13;;
10523;SDS011;5310;48.638;9.060;2022-08-24T12:03:16;0.30;;;0.30;;
10523;SDS011;5310;48.638;9.060;2022-08-24T12:06:01;0.10;;;0.10;;
10523;SDS011;5310;48.638;9.060;2022-08-24T12:08:38;0.20;;;0.20;;
10523;SDS011;5310;48.638;9.060;2022-08-24T12:11:30;0.20;;;0.20;;
10523;SDS011;5310;48.638;9.060;2022-08-24T12:14:30;0.20;;;0.20;;
10523;SDS011;5310;48.638;9.060;2022-08-24T12:17:22;0.20;;;0.20;;
10523;SDS011;5310;48.638;9.060;2022-08-24T12:19:50;0.20;;;0.20;;
10523;SDS011;5310;48.638;9.060;2022-08-24T12:22:19;0.20;;;0.20;;
10523;SDS011;5310;48.638;9.060;2022-08-24T12:24:53;0.10;;;0.10;;
10523;SDS011;5310;48.638;9.060;2022-08-24T12:27:29;0.20;;;0.20;;
10523;SDS011;5310;48.638;9.060;2022-08-24T12:29:58;0.10;;;0.10;;
10523;SDS011;5310;48.638;9.060;2022-08-24T12:32:27;0.20;;;0.20;;
10523;SDS011;5310;48.638;9.060;2022-08-24T12:35:15;0.20;;;0.20;;
10523;SDS011;5310;48.638;9.060;2022-08-24T12:38:10;0.20;;;0.20;;
10523;SDS011;5310;48.638;9.060;2022-08-24T12:40:41;0.20;;;0.20;;
10523;SDS011;5310;48.638;9.060;2022-08-24T12:43:22;0.20;;;0.20;;
10523;SDS011;5310;48.638;9.060;2022-08-24T12:46:00;0.20;;;0.20;;
10523;SDS011;5310;48.638;9.060;2022-08-24T12:51:06;0.10;;;0.10;;
10523;SDS011;5310;48.638;9.060;2022-08-24T12:53:58;0.20;;;0.20;;
10523;SDS011;5310;48.638;9.060;2022-08-24T12:56:50;0.20;;;0.20;;
10523;SDS011;5310;48.638;9.060;2022-08-24T12:59:41;0.20;;;0.20;;
10523;SDS011;5310;48.638;9.060;2022-08-24T13:04:41;0.13;;;0.13;;
10523;SDS011;5310;48.638;9.060;2022-08-24T13:09:44;0.20;;;0.20;;
10523;SDS011;5310;48.638;9.060;2022-08-24T13:15:25;0.10;;;0.10;;
10523;SDS011;5310;48.638;9.060;2022-08-24T13:20:22;0.20;;;0.20;;
10523;SDS011;5310;48.638;9.060;2022-08-24T13:28:08;0.20;;;0.20;;
10523;SDS011;5310;48.638;9.060;2022-08-24T13:33:35;0.13;;;0.13;;
10523;SDS011;5310;48.638;9.060;2022-08-24T13:36:04;0.10;;;0.10;;
10523;SDS011;5310;48.638;9.060;2022-08-24T13:39:10;0.20;;;0.20;;
10523;SDS011;5310;48.638;9.060;2022-08-24T13:55:27;0.20;;;0.20;;
10523;SDS011;5310;48.638;9.060;2022-08-24T14:00:48;0.10;;;0.10;;
10523;SDS011;5310;48.638;9.060;2022-08-24T14:03:20;0.10;;;0.10;;
10523;SDS011;5310;48.638;9.060;2022-08-24T14:06:31;0.10;;;0.10;;
10523;SDS011;5310;48.638;9.060;2022-08-24T14:11:54;0.20;;;0.20;;
10523;SDS011;5310;48.638;9.060;2022-08-24T14:20:23;0.20;;;0.20;;
10523;SDS011;5310;48.638;9.060;2022-08-24T14:25:45;0.10;;;0.10;;
10523;SDS011;5310;48.638;9.060;2022-08-24T14:31:11;0.20;;;0.20;;
10523;SDS011;5310;48.638;9.060;2022-08-24T14:34:27;0.20;;;0.20;;
10523;SDS011;5310;48.638;9.060;2022-08-24T14:36:45;0.20;;;0.20;;
10523;SDS011;5310;48.638;9.060;2022-08-24T14:39:32;0.20;;;0.20;;
10523;SDS011;5310;48.638;9.060;2022-08-24T14:44:49;0.30;;;0.30;;
10523;SDS011;5310;48.638;9.060;2022-08-24T14:50:15;0.20;;;0.20;;
10523;SDS011;5310;48.638;9.060;2022-08-24T14:52:54;0.25;;;0.25;;
10523;SDS011;5310;48.638;9.060;2022-08-24T14:56:08;0.20;;;0.20;;
10523;SDS011;5310;48.638;9.060;2022-08-24T15:01:27;0.20;;;0.20;;
10523;SDS011;5310;48.638;9.060;2022-08-24T15:06:26;0.20;;;0.20;;
10523;SDS011;5310;48.638;9.060;2022-08-24T15:09:07;0.20;;;0.20;;
10523;SDS011;5310;48.638;9.060;2022-08-24T15:12:09;0.17;;;0.17;;
10523;SDS011;5310;48.638;9.060;2022-08-24T15:14:50;0.20;;;0.20;;
10523;SDS011;5310;48.638;9.060;2022-08-24T15:17:20;0.20;;;0.20;;
10523;SDS011;5310;48.638;9.060;2022-08-24T15:19:58;0.20;;;0.20;;
10523;SDS011;5310;48.638;9.060;2022-08-24T15:28:10;0.20;;;0.20;;
10523;SDS011;5310;48.638;9.060;2022-08-24T15:30:38;0.20;;;0.20;;
10523;SDS011;5310;48.638;9.060;2022-08-24T15:33:10;0.20;;;0.20;;
10523;SDS011;5310;48.638;9.060;2022-08-24T15:35:39;0.20;;;0.20;;
10523;SDS011;5310;48.638;9.060;2022-08-24T15:38:22;0.25;;;0.25;;
10523;SDS011;5310;48.638;9.060;2022-08-24T15:40:49;0.20;;;0.20;;
10523;SDS011;5310;48.638;9.060;2022-08-24T15:43:16;0.20;;;0.20;;
10523;SDS011;5310;48.638;9.060;2022-08-24T15:45:46;0.30;;;0.30;;
10523;SDS011;5310;48.638;9.060;2022-08-24T15:48:13;0.30;;;0.30;;
10523;SDS011;5310;48.638;9.060;2022-08-24T15:50:41;0.20;;;0.20;;
10523;SDS011;5310;48.638;9.060;2022-08-24T15:55:38;0.20;;;0.20;;
10523;SDS011;5310;48.638;9.060;2022-08-24T16:00:51;0.10;;;0.10;;
10523;SDS011;5310;48.638;9.060;2022-08-24T16:03:43;0.20;;;0.20;;
10523;SDS011;5310;48.638;9.060;2022-08-24T16:13:55;0.20;;;0.20;;
10523;SDS011;5310;48.638;9.060;2022-08-24T16:16:33;0.20;;;0.20;;
10523;SDS011;5310;48.638;9.060;2022-08-24T16:18:59;0.20;;;0.20;;
10523;SDS011;5310;48.638;9.060;2022-08-24T16:24:06;0.20;;;0.20;;
10523;SDS011;5310;48.638;9.060;2022-08-24T16:34:30;0.20;;;0.20;;
10523;SDS011;5310;48.638;9.060;2022-08-24T16:36:56;0.20;;;0.20;;
10523;SDS011;5310;48.638;9.060;2022-08-24T16:39:23;0.20;;;0.20;;
10523;SDS011;5310;48.638;9.060;2022-08-24T16:41:50;0.10;;;0.10;;
10523;SDS011;5310;48.638;9.060;2022-08-24T16:44:19;0.20;;;0.20;;
10523;SDS011;5310;48.638;9.060;2022-08-24T16:46:45;0.20;;;0.20;;
10523;SDS011;5310;48.638;9.060;2022-08-24T16:49:11;0.28;;;0.28;;
10523;SDS011;5310;48.638;9.060;2022-08-24T16:51:37;0.20;;;0.20;;
10523;SDS011;5310;48.638;9.060;2022-08-24T16:54:03;0.22;;;0.22;;
10523;SDS011;5310;48.638;9.060;2022-08-24T16:56:29;0.28;;;0.28;;
10523;SDS011;5310;48.638;9.060;2022-08-24T16:58:55;0.20;;;0.20;;
10523;SDS011;5310;48.638;9.060;2022-08-24T17:01:21;0.20;;;0.20;;
10523;SDS011;5310;48.638;9.060;2022-08-24T17:03:47;0.20;;;0.20;;
10523;SDS011;5310;48.638;9.060;2022-08-24T17:06:13;0.20;;;0.20;;
10523;SDS011;5310;48.638;9.060;2022-08-24T17:08:42;0.25;;;0.25;;
10523;SDS011;5310;48.638;9.060;2022-08-24T17:11:08;0.20;;;0.20;;
10523;SDS011;5310;48.638;9.060;2022-08-24T17:13:34;0.20;;;0.20;;
10523;SDS011;5310;48.638;9.060;2022-08-24T17:16:00;0.20;;;0.20;;
10523;SDS011;5310;48.638;9.060;2022-08-24T17:18:26;0.20;;;0.20;;
10523;SDS011;5310;48.638;9.060;2022-08-24T17:20:52;0.20;;;0.20;;
10523;SDS011;5310;48.638;9.060;2022-08-24T17:23:18;0.20;;;0.20;;
10523;SDS011;5310;48.638;9.060;2022-08-24T17:25:44;0.20;;;0.20;;
10523;SDS011;5310;48.638;9.060;2022-08-24T17:28:10;0.22;;;0.22;;
10523;SDS011;5310;48.638;9.060;2022-08-24T17:30:40;0.25;;;0.25;;
10523;SDS011;5310;48.638;9.060;2022-08-24T17:33:07;0.20;;;0.20;;
10523;SDS011;5310;48.638;9.060;2022-08-24T17:35:33;0.40;;;0.40;;
10523;SDS011;5310;48.638;9.060;2022-08-24T17:38:00;0.10;;;0.10;;
10523;SDS011;5310;48.638;9.060;2022-08-24T17:40:27;0.20;;;0.20;;
10523;SDS011;5310;48.638;9.060;2022-08-24T17:42:55;0.20;;;0.20;;
10523;SDS011;5310;48.638;9.060;2022-08-24T17:45:21;0.20;;;0.20;;
10523;SDS011;5310;48.638;9.060;2022-08-24T17:47:47;0.20;;;0.20;;
10523;SDS011;5310;48.638;9.060;2022-08-24T17:50:14;0.20;;;0.20;;
10523;SDS011;5310;48.638;9.060;2022-08-24T17:52:41;0.30;;;0.30;;
10523;SDS011;5310;48.638;9.060;2022-08-24T17:55:08;0.10;;;0.10;;
10523;SDS011;5310;48.638;9.060;2022-08-24T17:57:35;0.20;;;0.20;;
10523;SDS011;5310;48.638;9.060;2022-08-24T18:00:01;0.10;;;0.10;;
10523;SDS011;5310;48.638;9.060;2022-08-24T18:02:29;0.20;;;0.20;;
10523;SDS011;5310;48.638;9.060;2022-08-24T18:04:55;0.10;;;0.10;;
10523;SDS011;5310;48.638;9.060;2022-08-24T18:07:21;0.10;;;0.10;;
10523;SDS011;5310;48.638;9.060;2022-08-24T18:12:14;0.22;;;0.22;;
10523;SDS011;5310;48.638;9.060;2022-08-24T18:14:41;0.30;;;0.30;;
10523;SDS011;5310;48.638;9.060;2022-08-24T18:17:08;0.20;;;0.20;;
10523;SDS011;5310;48.638;9.060;2022-08-24T18:19:35;0.20;;;0.20;;
10523;SDS011;5310;48.638;9.060;2022-08-24T18:22:01;0.25;;;0.25;;
10523;SDS011;5310;48.638;9.060;2022-08-24T18:24:29;0.32;;;0.32;;
10523;SDS011;5310;48.638;9.060;2022-08-24T18:27:00;0.20;;;0.20;;
10523;SDS011;5310;48.638;9.060;2022-08-24T18:29:26;0.17;;;0.17;;
10523;SDS011;5310;48.638;9.060;2022-08-24T18:31:53;0.20;;;0.20;;
10523;SDS011;5310;48.638;9.060;2022-08-24T18:34:19;0.22;;;0.22;;
10523;SDS011;5310;48.638;9.060;2022-08-24T18:36:45;0.25;;;0.25;;
10523;SDS011;5310;48.638;9.060;2022-08-24T18:39:11;0.20;;;0.20;;
10523;SDS011;5310;48.638;9.060;2022-08-24T18:41:38;0.30;;;0.30;;